createdAt,value
2023-02-15T00:00:16.756Z,54.45
2023-02-15T00:02:45.967Z,58.38
2023-02-15T00:05:12.837Z,58.10
2023-02-15T00:07:43.087Z,56.90
2023-02-15T00:10:13.219Z,59.00
2023-02-15T00:12:42.336Z,57.85
2023-02-15T00:15:09.403Z,56.85
2023-02-15T00:17:36.101Z,61.38
2023-02-15T00:20:03.065Z,55.17
2023-02-15T00:22:29.878Z,58.90
2023-02-15T00:24:56.513Z,61.30
2023-02-15T00:27:23.504Z,59.30
2023-02-15T00:29:50.215Z,57.30
2023-02-15T00:32:16.868Z,58.08
2023-02-15T00:34:44.339Z,56.63
2023-02-15T00:37:11.239Z,61.47
2023-02-15T00:39:44.164Z,60.15
2023-02-15T00:42:10.887Z,60.47
2023-02-15T00:44:37.593Z,61.15
2023-02-15T00:47:04.385Z,64.03
2023-02-15T00:49:31.137Z,55.53
2023-02-15T00:51:57.911Z,63.35
2023-02-15T00:54:24.726Z,58.00
2023-02-15T00:56:53.273Z,64.90
2023-02-15T00:59:20.120Z,62.97
2023-02-15T01:01:46.900Z,63.40
2023-02-15T01:04:13.877Z,61.97
2023-02-15T01:06:46.651Z,63.33
2023-02-15T01:09:14.582Z,59.67
2023-02-15T01:11:44.230Z,63.13
2023-02-15T01:14:16.842Z,67.68
2023-02-15T01:16:46.880Z,63.90
2023-02-15T01:19:17.450Z,62.55
2023-02-15T01:21:46.700Z,66.97
2023-02-15T01:24:17.057Z,63.15
2023-02-15T01:26:46.701Z,62.25
2023-02-15T01:29:13.476Z,63.05
2023-02-15T01:31:43.462Z,61.25
2023-02-15T01:34:10.512Z,60.55
2023-02-15T01:36:37.813Z,63.45
2023-02-15T01:39:04.691Z,64.22
2023-02-15T01:41:31.940Z,66.00
2023-02-15T01:44:04.897Z,61.33
2023-02-15T01:46:55.797Z,66.05
2023-02-15T01:49:28.468Z,63.65
2023-02-15T01:51:55.672Z,68.22
2023-02-15T01:54:33.763Z,59.67
2023-02-15T01:57:17.429Z,55.40
2023-02-15T01:59:56.238Z,57.67
2023-02-15T02:02:25.473Z,69.78
2023-02-15T02:05:04.111Z,59.90
2023-02-15T02:07:44.256Z,58.10
2023-02-15T02:10:23.925Z,60.65
2023-02-15T02:12:59.099Z,55.33
2023-02-15T02:15:56.169Z,58.08
2023-02-15T02:18:38.868Z,56.42
2023-02-15T02:21:45.548Z,74.55
2023-02-15T02:25:15.500Z,55.58
2023-02-15T02:28:44.324Z,57.83
2023-02-15T02:31:20.203Z,66.78
2023-02-15T02:34:22.294Z,64.88
2023-02-15T02:37:31.571Z,56.08
2023-02-15T02:40:30.264Z,79.05
2023-02-15T02:43:21.898Z,81.40
2023-02-15T02:46:04.623Z,77.68
2023-02-15T02:48:35.249Z,69.18
2023-02-15T02:51:08.489Z,78.68
2023-02-15T02:53:35.794Z,61.90
2023-02-15T02:56:42.249Z,69.00
2023-02-15T02:59:33.321Z,87.80
2023-02-15T03:02:26.436Z,79.63
2023-02-15T03:05:07.286Z,84.55
2023-02-15T03:07:36.848Z,81.63
2023-02-15T03:10:10.212Z,90.90
2023-02-15T03:12:44.703Z,81.97
2023-02-15T03:18:05.248Z,84.80
2023-02-15T03:20:44.665Z,86.72
2023-02-15T03:23:23.397Z,93.85
2023-02-15T03:26:01.909Z,73.63
2023-02-15T03:28:49.646Z,98.97
2023-02-15T03:31:25.466Z,73.50
2023-02-15T03:34:07.294Z,73.32
2023-02-15T03:37:35.292Z,67.97
2023-02-15T03:40:50.186Z,75.18
2023-02-15T03:43:41.719Z,83.38
2023-02-15T03:46:21.131Z,76.03
2023-02-15T03:48:58.567Z,63.60
2023-02-15T03:51:36.361Z,60.92
2023-02-15T03:54:39.022Z,64.63
2023-02-15T03:57:48.924Z,69.43
2023-02-15T04:00:43.828Z,75.82
2023-02-15T04:05:45.743Z,57.25
2023-02-15T04:08:14.199Z,75.45
2023-02-15T04:10:57.118Z,83.53
2023-02-15T04:13:32.876Z,62.90
2023-02-15T04:16:15.081Z,57.22
2023-02-15T04:19:03.746Z,55.47
2023-02-15T04:21:51.793Z,79.10
2023-02-15T04:24:37.926Z,56.10
2023-02-15T04:27:11.168Z,52.25
2023-02-15T04:29:39.005Z,58.65
2023-02-15T04:32:09.101Z,65.85
2023-02-15T04:34:35.761Z,67.72
2023-02-15T04:37:02.508Z,62.08
2023-02-15T04:39:31.051Z,80.97
2023-02-15T04:42:00.991Z,77.95
2023-02-15T04:44:30.738Z,63.03
2023-02-15T04:46:57.727Z,76.28
2023-02-15T04:49:24.490Z,54.72
2023-02-15T04:51:51.241Z,58.35
2023-02-15T04:54:18.183Z,67.22
2023-02-15T04:56:45.290Z,61.33
2023-02-15T04:59:15.377Z,79.88
2023-02-15T05:01:45.474Z,66.03
2023-02-15T05:04:12.256Z,59.30
2023-02-15T05:06:42.180Z,71.95
2023-02-15T08:15:18.869Z,55.00
2023-02-15T08:42:22.134Z,67.28
2023-02-15T08:44:55.165Z,64.38
2023-02-15T08:47:21.893Z,64.88
2023-02-15T08:49:48.586Z,63.20
2023-02-15T08:52:15.226Z,61.83
2023-02-15T08:54:44.995Z,57.42
2023-02-15T08:57:15.630Z,61.88
2023-02-15T08:59:42.512Z,59.05
2023-02-15T09:02:16.276Z,54.92
2023-02-15T09:04:43.059Z,50.00
2023-02-15T09:07:19.088Z,49.67
2023-02-15T09:09:47.009Z,51.78
2023-02-15T09:12:13.893Z,41.60
2023-02-15T09:14:43.788Z,67.47
2023-02-15T09:17:19.663Z,51.83
2023-02-15T09:19:46.377Z,58.08
2023-02-15T09:22:16.081Z,51.33
2023-02-15T09:24:45.761Z,43.20
2023-02-15T09:27:21.225Z,47.13
2023-02-15T09:29:48.038Z,52.40
2023-02-15T09:32:16.160Z,71.40
2023-02-15T09:34:42.955Z,47.22
2023-02-15T09:37:10.037Z,34.75
2023-02-15T09:39:44.747Z,63.35
2023-02-15T09:43:29.906Z,47.35
2023-02-15T09:46:46.027Z,38.13
2023-02-15T09:49:44.722Z,38.13
2023-02-15T09:52:43.878Z,42.35
2023-02-15T09:55:40.548Z,38.88
2023-02-15T09:58:51.921Z,41.88
2023-02-15T10:01:55.290Z,53.13
2023-02-15T10:04:57.615Z,38.83
2023-02-15T10:07:48.565Z,44.30
2023-02-15T10:11:23.076Z,79.00
2023-02-15T10:14:46.020Z,53.45
2023-02-15T10:18:02.989Z,69.88
2023-02-15T10:20:53.343Z,35.15
2023-02-15T10:24:12.636Z,37.47
2023-02-15T10:26:50.852Z,50.25
2023-02-15T10:29:43.224Z,48.22
2023-02-15T10:33:11.116Z,38.83
2023-02-15T10:36:16.171Z,54.10
2023-02-15T10:39:10.188Z,60.10
2023-02-15T10:42:01.172Z,41.08
2023-02-15T10:45:35.258Z,64.20
2023-02-15T10:48:57.597Z,58.95
2023-02-15T10:52:24.578Z,38.83
2023-02-15T10:55:36.586Z,55.58
2023-02-15T10:59:07.514Z,40.05
2023-02-15T11:01:59.554Z,71.93
2023-02-15T11:04:54.871Z,45.30
2023-02-15T11:07:44.453Z,48.03
2023-02-15T11:10:59.691Z,48.05
2023-02-15T11:13:35.872Z,42.63
2023-02-15T11:16:37.687Z,50.75
2023-02-15T11:19:24.875Z,50.78
2023-02-15T11:22:00.249Z,55.65
2023-02-15T11:24:32.589Z,39.83
2023-02-15T11:27:20.204Z,38.70
2023-02-15T11:30:25.184Z,51.40
2023-02-15T11:33:02.867Z,36.50
2023-02-15T11:35:56.913Z,40.63
2023-02-15T11:38:35.453Z,34.50
2023-02-15T11:41:20.171Z,50.95
2023-02-15T11:46:38.406Z,44.03
2023-02-15T11:49:34.861Z,39.42
2023-02-15T11:52:14.456Z,39.88
2023-02-15T11:54:51.333Z,47.33
2023-02-15T11:57:34.758Z,36.88
2023-02-15T12:00:26.576Z,42.38
2023-02-15T12:03:03.248Z,38.40
2023-02-15T12:05:31.247Z,46.75
2023-02-15T12:08:18.524Z,39.13
2023-02-15T12:11:36.660Z,42.55
2023-02-15T12:14:22.916Z,36.97
2023-02-15T12:16:56.864Z,41.88
2023-02-15T12:19:43.955Z,36.10
2023-02-15T12:22:31.559Z,42.38
2023-02-15T12:25:05.008Z,39.45
2023-02-15T12:27:36.444Z,36.63
2023-02-15T12:30:22.921Z,40.90
2023-02-15T12:33:00.653Z,36.05
2023-02-15T12:35:36.994Z,40.53
2023-02-15T13:40:55.502Z,43.10
2023-02-15T13:43:59.637Z,42.53
2023-02-15T13:47:13.883Z,42.42
2023-02-15T13:50:49.978Z,41.10
2023-02-15T13:54:01.283Z,43.95
2023-02-15T13:57:44.342Z,45.10
2023-02-15T14:00:32.874Z,45.00
2023-02-15T14:03:48.858Z,42.22
2023-02-15T14:07:07.410Z,43.95
2023-02-15T14:10:26.390Z,48.05
2023-02-15T14:13:54.487Z,47.63
2023-02-15T14:17:07.506Z,44.38
2023-02-15T14:20:17.092Z,48.47
2023-02-15T14:23:31.895Z,48.10
2023-02-15T14:26:56.621Z,44.27
2023-02-15T14:30:18.004Z,45.78
2023-02-15T14:32:54.031Z,46.03
2023-02-15T14:35:29.152Z,47.10
2023-02-15T14:38:27.826Z,43.65
2023-02-15T14:41:38.953Z,43.28
2023-02-15T14:45:01.063Z,46.17
2023-02-15T14:48:24.309Z,40.63
2023-02-15T14:50:51.424Z,43.83
2023-02-15T14:53:45.282Z,44.05
2023-02-15T14:56:11.964Z,43.53
2023-02-15T14:58:56.417Z,44.40
2023-02-15T15:01:32.912Z,41.15
2023-02-15T15:04:35.341Z,41.97
2023-02-15T15:07:29.642Z,43.55
2023-02-15T15:10:20.166Z,43.67
2023-02-15T15:13:33.331Z,43.38
2023-02-15T15:16:52.221Z,41.70
2023-02-15T15:20:01.383Z,43.42
2023-02-15T15:22:32.584Z,47.97
2023-02-15T15:25:47.354Z,44.80
2023-02-15T15:28:44.730Z,46.57
2023-02-15T15:31:29.979Z,48.10
2023-02-15T15:34:20.444Z,53.00
2023-02-15T15:37:24.732Z,50.65
2023-02-15T15:40:50.950Z,50.38
2023-02-15T15:44:08.408Z,56.72
2023-02-15T15:47:06.646Z,48.58
2023-02-15T15:49:38.820Z,59.00
2023-02-15T15:52:32.305Z,54.40
2023-02-15T15:58:31.719Z,48.03
2023-02-15T16:07:32.729Z,54.50
2023-02-15T16:10:09.171Z,61.20
2023-02-15T16:12:56.669Z,58.45
2023-02-15T16:15:56.441Z,51.05
2023-02-15T16:18:34.810Z,68.97
2023-02-15T16:21:22.316Z,83.70
2023-02-15T16:24:25.379Z,66.43
2023-02-15T16:27:16.318Z,77.07
2023-02-15T16:29:53.789Z,79.82
2023-02-15T16:32:29.055Z,82.05
2023-02-15T16:35:20.591Z,67.18
2023-02-15T16:37:57.991Z,65.95
2023-02-15T16:40:59.414Z,70.95
2023-02-15T16:43:34.054Z,60.42
2023-02-15T16:47:18.462Z,66.68
2023-02-15T16:49:56.602Z,75.28
2023-02-15T16:52:30.021Z,85.65
2023-02-15T16:55:29.639Z,67.73
2023-02-15T16:58:06.216Z,86.78
2023-02-15T17:03:38.254Z,98.00
2023-02-15T17:06:37.504Z,61.80
2023-02-15T17:09:19.243Z,68.45
2023-02-15T17:11:52.465Z,86.40
2023-02-15T17:15:02.702Z,87.45
2023-02-15T17:17:35.438Z,101.13
2023-02-15T17:20:21.789Z,61.60
2023-02-15T17:22:54.235Z,80.65
2023-02-15T17:25:38.811Z,108.35
2023-02-15T17:30:53.401Z,94.30
2023-02-15T17:33:36.474Z,103.63
2023-02-15T17:36:32.515Z,79.85
2023-02-15T17:38:59.135Z,81.55
2023-02-15T17:41:48.578Z,65.53
2023-02-15T17:44:32.006Z,77.22
2023-02-15T17:47:01.570Z,118.28
2023-02-15T17:49:47.039Z,94.22
2023-02-15T17:52:18.733Z,85.13
2023-02-15T17:55:20.523Z,98.60
2023-02-15T21:24:57.826Z,54.28
2023-02-15T21:27:24.469Z,53.63
2023-02-15T21:29:54.002Z,59.08
2023-02-15T21:32:20.924Z,59.78
2023-02-15T21:34:53.620Z,56.63
2023-02-15T21:37:35.490Z,54.65
2023-02-15T21:40:05.873Z,50.97
2023-02-15T21:42:51.575Z,58.17
2023-02-15T21:45:45.270Z,64.70
2023-02-15T21:48:12.029Z,57.17
2023-02-15T21:51:03.725Z,70.25
2023-02-15T21:53:53.137Z,60.22
2023-02-15T21:56:24.411Z,60.67
2023-02-15T21:58:54.032Z,52.58
2023-02-15T22:01:28.286Z,71.70
2023-02-15T22:06:25.893Z,52.97
2023-02-15T22:08:53.387Z,51.47
2023-02-15T22:11:22.584Z,49.30
2023-02-15T22:13:53.855Z,50.90
2023-02-15T22:16:26.946Z,59.45
2023-02-15T22:18:53.650Z,53.10
2023-02-15T22:21:20.820Z,57.25
2023-02-15T22:23:47.508Z,55.80
2023-02-15T22:26:24.418Z,58.30
2023-02-15T22:28:54.180Z,59.80
2023-02-15T22:31:23.000Z,50.70
2023-02-15T22:33:58.608Z,54.83
2023-02-15T22:36:30.377Z,55.72
2023-02-15T22:38:58.281Z,53.70
2023-02-15T22:41:31.451Z,53.25
2023-02-15T22:43:59.167Z,52.67
2023-02-15T22:46:26.822Z,57.08
2023-02-15T22:48:57.066Z,50.53
2023-02-15T22:51:25.070Z,52.08
2023-02-15T22:54:06.140Z,54.80
2023-02-15T22:56:54.812Z,55.03
2023-02-15T22:59:28.731Z,52.75
2023-02-15T23:02:03.417Z,53.05
2023-02-15T23:04:30.555Z,51.90
2023-02-15T23:06:59.381Z,54.03
2023-02-15T23:09:26.520Z,53.25
2023-02-15T23:11:59.486Z,55.03
2023-02-15T23:14:42.905Z,54.67
2023-02-15T23:17:09.599Z,53.55
2023-02-15T23:19:47.355Z,53.42
2023-02-15T23:22:18.194Z,51.47
2023-02-15T23:24:54.069Z,55.15
2023-02-15T23:27:46.610Z,54.78
2023-02-15T23:30:15.335Z,56.42
2023-02-15T23:32:42.421Z,39.25
2023-02-15T23:35:20.165Z,55.80
2023-02-15T23:37:46.934Z,55.47
2023-02-15T23:40:42.813Z,54.72
2023-02-15T23:43:23.034Z,51.30
2023-02-15T23:45:49.901Z,55.72
2023-02-15T23:48:34.063Z,57.63
2023-02-15T23:51:05.915Z,54.92
2023-02-15T23:53:33.728Z,57.05
2023-02-15T23:56:01.825Z,54.65
2023-02-15T23:58:43.827Z,57.05
